Time;durP1;ratioP1;P1;durP2;ratioP2;P2;SDS_P1;SDS_P2;PMS_P1;PMS_P2;Temp;Humidity;BMP_temperature;BMP_pressure;BME280_temperature;BME280_humidity;BME280_pressure;Samples;Min_cycle;Max_cycle;Signal;HPM_P1;HPM_P2
2022/04/13 00:00:13;;;;;;;;;;;7.20;74.90;;;;;;5033013;28;21597;-67
2022/04/13 00:02:40;;;;;;;;;;;7.20;76.60;;;;;;5033635;28;19936;-67
2022/04/13 00:05:08;;;;;;;;;;;7.20;74.80;;;;;;5032757;28;19932;-67
2022/04/13 00:07:36;;;;;;;;;;;7.20;76.40;;;;;;5019905;28;19935;-66
2022/04/13 00:10:03;;;;;;;;;;;7.10;75.60;;;;;;5036912;28;19936;-67
2022/04/13 00:12:30;;;;;;;;;;;7.10;74.80;;;;;;5038266;28;19936;-67
2022/04/13 00:14:57;;;;;;;;;;;7.00;76.30;;;;;;5034067;28;20014;-67
2022/04/13 00:17:24;;;;;;;;;;;7.00;76.30;;;;;;5036316;28;19929;-67
2022/04/13 00:19:51;;;;;;;;;;;6.90;77.50;;;;;;5034229;28;21018;-67
2022/04/13 00:22:17;;;;;;;;;;;6.90;76.30;;;;;;5038285;28;19978;-67
2022/04/13 00:24:44;;;;;;;;;;;6.80;76.80;;;;;;5020032;28;19932;-67
2022/04/13 00:27:11;;;;;;;;;;;6.80;78.20;;;;;;5041349;28;19960;-67
2022/04/13 00:29:38;;;;;;;;;;;6.80;77.10;;;;;;5053960;28;19925;-66
2022/04/13 00:32:06;;;;;;;;;;;6.80;75.90;;;;;;5034852;28;20002;-66
2022/04/13 00:34:33;;;;;;;;;;;6.80;77.80;;;;;;5033661;28;20356;-67
2022/04/13 00:37:00;;;;;;;;;;;6.80;76.80;;;;;;5036261;28;20010;-67
2022/04/13 00:39:27;;;;;;;;;;;6.80;76.60;;;;;;5033446;28;20288;-67
2022/04/13 00:41:58;;;;;;;;;;;6.70;77.40;;;;;;5034046;28;19933;-67
2022/04/13 00:44:25;;;;;;;;;;;6.70;79.70;;;;;;5034558;28;20024;-67
2022/04/13 00:46:53;;;;;;;;;;;6.70;79.40;;;;;;5037145;28;19932;-67
2022/04/13 00:49:20;;;;;;;;;;;6.60;78.60;;;;;;5041209;28;19935;-67
2022/04/13 00:51:47;;;;;;;;;;;6.60;78.60;;;;;;5034429;28;20011;-67
2022/04/13 00:54:15;;;;;;;;;;;6.60;76.90;;;;;;5038073;28;19944;-67
2022/04/13 00:56:43;;;;;;;;;;;6.50;78.60;;;;;;5034312;28;19933;-67
2022/04/13 00:59:12;;;;;;;;;;;6.50;78.10;;;;;;5036071;28;19925;-67
2022/04/13 01:01:43;;;;;;;;;;;6.50;77.10;;;;;;5038650;28;19964;-67
2022/04/13 01:04:11;;;;;;;;;;;6.50;78.60;;;;;;5036923;28;19979;-67
2022/04/13 01:06:38;;;;;;;;;;;6.50;77.50;;;;;;5035924;28;19986;-67
2022/04/13 01:09:05;;;;;;;;;;;6.50;78.90;;;;;;5021973;28;20067;-67
2022/04/13 01:11:32;;;;;;;;;;;6.50;78.80;;;;;;5035327;28;20098;-67
2022/04/13 01:14:00;;;;;;;;;;;6.40;79.30;;;;;;5035012;28;19975;-67
2022/04/13 01:16:27;;;;;;;;;;;6.40;78.00;;;;;;5035877;28;19937;-67
2022/04/13 01:18:54;;;;;;;;;;;6.30;78.30;;;;;;5033432;28;20023;-67
2022/04/13 01:21:42;;;;;;;;;;;6.30;78.40;;;;;;5047757;28;19968;-66
2022/04/13 01:24:09;;;;;;;;;;;6.30;78.90;;;;;;5032098;28;19959;-67
2022/04/13 01:26:37;;;;;;;;;;;6.30;79.80;;;;;;5037905;28;19929;-67
2022/04/13 01:29:04;;;;;;;;;;;6.20;79.60;;;;;;5038621;28;20677;-67
2022/04/13 01:31:34;;;;;;;;;;;6.20;81.00;;;;;;5037527;28;19936;-67
2022/04/13 01:34:01;;;;;;;;;;;6.20;79.70;;;;;;5034813;28;19929;-67
2022/04/13 01:36:28;;;;;;;;;;;6.20;79.90;;;;;;5036768;28;20693;-67
2022/04/13 01:38:55;;;;;;;;;;;6.10;81.40;;;;;;5036377;28;20342;-67
2022/04/13 01:41:22;;;;;;;;;;;6.10;79.80;;;;;;5036683;28;19925;-67
2022/04/13 01:43:49;;;;;;;;;;;6.10;80.20;;;;;;5034482;28;19933;-67
2022/04/13 01:46:16;;;;;;;;;;;6.10;80.40;;;;;;5034721;28;19929;-67
2022/04/13 01:48:43;;;;;;;;;;;6.10;80.20;;;;;;5035420;28;19925;-67
2022/04/13 01:51:10;;;;;;;;;;;6.10;79.70;;;;;;5036401;28;20512;-67
2022/04/13 01:53:37;;;;;;;;;;;6.10;79.70;;;;;;5034049;28;20098;-67
2022/04/13 01:56:04;;;;;;;;;;;6.10;81.40;;;;;;5037727;28;19933;-67
2022/04/13 01:58:31;;;;;;;;;;;6.00;80.10;;;;;;5033680;28;20033;-67
2022/04/13 02:00:58;;;;;;;;;;;6.00;81.10;;;;;;5032165;28;20399;-67
2022/04/13 02:03:26;;;;;;;;;;;6.00;80.00;;;;;;5039134;28;20358;-67
2022/04/13 02:05:53;;;;;;;;;;;6.00;80.00;;;;;;5036047;28;19936;-67
2022/04/13 02:08:21;;;;;;;;;;;5.90;79.80;;;;;;5037415;28;19983;-67
2022/04/13 02:10:48;;;;;;;;;;;5.90;79.30;;;;;;5035077;28;19950;-67
2022/04/13 02:13:15;;;;;;;;;;;5.90;79.40;;;;;;5033445;28;19991;-67
2022/04/13 02:15:43;;;;;;;;;;;5.90;79.50;;;;;;5038106;28;19978;-67
2022/04/13 02:18:09;;;;;;;;;;;5.90;80.60;;;;;;5033125;28;19968;-67
2022/04/13 02:20:36;;;;;;;;;;;5.80;80.50;;;;;;5034047;28;19983;-67
2022/04/13 02:23:03;;;;;;;;;;;5.90;79.50;;;;;;5036890;28;19932;-67
2022/04/13 02:25:30;;;;;;;;;;;5.80;79.40;;;;;;5050689;28;20931;-67
2022/04/13 02:27:57;;;;;;;;;;;5.80;80.10;;;;;;5040560;28;19956;-67
2022/04/13 02:30:24;;;;;;;;;;;5.80;79.50;;;;;;5033718;28;19933;-67
2022/04/13 02:32:51;;;;;;;;;;;5.80;80.40;;;;;;5032880;28;19998;-67
2022/04/13 02:35:18;;;;;;;;;;;5.80;79.80;;;;;;5032799;28;19925;-67
2022/04/13 02:37:44;;;;;;;;;;;5.70;80.10;;;;;;5034771;28;19933;-67
2022/04/13 02:40:16;;;;;;;;;;;5.70;80.80;;;;;;5030534;28;19925;-67
2022/04/13 02:42:43;;;;;;;;;;;5.60;80.70;;;;;;5032644;28;19937;-68
2022/04/13 02:45:10;;;;;;;;;;;5.70;80.90;;;;;;5034632;28;20072;-67
2022/04/13 02:47:37;;;;;;;;;;;5.70;80.40;;;;;;5044576;28;19929;-67
2022/04/13 02:50:06;;;;;;;;;;;5.70;81.10;;;;;;5036039;28;19933;-67
2022/04/13 02:52:33;;;;;;;;;;;5.60;81.90;;;;;;5020640;28;19935;-67
2022/04/13 02:55:00;;;;;;;;;;;5.60;80.80;;;;;;5032057;28;19932;-67
2022/04/13 02:57:27;;;;;;;;;;;5.60;80.50;;;;;;5034016;28;19932;-67
2022/04/13 02:59:54;;;;;;;;;;;5.60;80.40;;;;;;5032712;28;20020;-67
2022/04/13 03:02:21;;;;;;;;;;;5.60;81.00;;;;;;5035121;28;20384;-67
2022/04/13 03:04:49;;;;;;;;;;;5.50;81.40;;;;;;5034412;28;20011;-67
2022/04/13 03:07:17;;;;;;;;;;;5.50;80.80;;;;;;5027688;28;19932;-67
2022/04/13 03:09:44;;;;;;;;;;;5.50;81.90;;;;;;5034650;28;20406;-67
2022/04/13 03:12:12;;;;;;;;;;;5.50;81.20;;;;;;5033693;28;22151;-67
2022/04/13 03:14:40;;;;;;;;;;;5.50;80.90;;;;;;5035876;28;20423;-67
2022/04/13 03:17:07;;;;;;;;;;;5.50;82.70;;;;;;5032882;28;20011;-67
2022/04/13 03:19:34;;;;;;;;;;;5.40;81.80;;;;;;5036636;28;19932;-67
2022/04/13 03:22:01;;;;;;;;;;;5.40;81.60;;;;;;5031974;28;22129;-67
2022/04/13 03:24:28;;;;;;;;;;;5.40;80.70;;;;;;5033409;28;19928;-66
2022/04/13 03:26:55;;;;;;;;;;;5.40;81.40;;;;;;5031900;28;19933;-66
2022/04/13 03:29:22;;;;;;;;;;;5.40;81.00;;;;;;5032045;28;19936;-66
2022/04/13 03:31:49;;;;;;;;;;;5.40;81.10;;;;;;5035909;28;19925;-67
2022/04/13 03:34:20;;;;;;;;;;;5.40;81.20;;;;;;5035432;28;19929;-67
2022/04/13 03:36:48;;;;;;;;;;;5.30;81.70;;;;;;5035512;28;19932;-67
2022/04/13 03:39:15;;;;;;;;;;;5.30;81.80;;;;;;5035665;28;20451;-67
2022/04/13 03:41:42;;;;;;;;;;;5.30;83.00;;;;;;5036389;28;19929;-67
2022/04/13 03:44:09;;;;;;;;;;;5.30;82.50;;;;;;5038531;28;19943;-67
2022/04/13 03:46:36;;;;;;;;;;;5.20;82.30;;;;;;5035887;28;19952;-67
2022/04/13 03:49:03;;;;;;;;;;;5.20;83.50;;;;;;5039480;28;20692;-67
2022/04/13 03:51:30;;;;;;;;;;;5.20;82.90;;;;;;5039141;28;19928;-67
2022/04/13 03:53:57;;;;;;;;;;;5.20;83.70;;;;;;5039339;28;19925;-66
2022/04/13 03:56:24;;;;;;;;;;;5.10;83.70;;;;;;5041361;28;19948;-67
2022/04/13 03:58:51;;;;;;;;;;;5.10;83.90;;;;;;5040183;28;20035;-67
2022/04/13 04:01:18;;;;;;;;;;;4.80;85.10;;;;;;5036271;28;20031;-67
2022/04/13 04:03:45;;;;;;;;;;;4.80;85.00;;;;;;5035734;28;19932;-67
2022/04/13 04:06:12;;;;;;;;;;;4.90;85.10;;;;;;5038538;28;20303;-67
2022/04/13 04:08:38;;;;;;;;;;;4.80;84.80;;;;;;5036427;28;20411;-67
2022/04/13 04:11:05;;;;;;;;;;;4.80;85.00;;;;;;5037561;28;20415;-67
2022/04/13 04:13:32;;;;;;;;;;;4.90;85.70;;;;;;5037911;28;20960;-67
2022/04/13 04:16:00;;;;;;;;;;;4.90;85.60;;;;;;5024321;28;19925;-67
2022/04/13 04:18:27;;;;;;;;;;;4.80;86.50;;;;;;5047282;28;19944;-67
2022/04/13 04:20:54;;;;;;;;;;;4.80;86.00;;;;;;5037635;28;20454;-67
2022/04/13 04:23:21;;;;;;;;;;;4.80;86.30;;;;;;5038005;28;19975;-67
2022/04/13 04:25:48;;;;;;;;;;;4.80;86.80;;;;;;5037673;28;20640;-67
2022/04/13 04:28:15;;;;;;;;;;;4.80;87.30;;;;;;5038481;28;20379;-67
2022/04/13 04:30:42;;;;;;;;;;;4.80;88.90;;;;;;5023643;28;20629;-67
2022/04/13 04:33:12;;;;;;;;;;;4.80;89.70;;;;;;5036138;28;19925;-67
2022/04/13 04:35:40;;;;;;;;;;;4.90;88.70;;;;;;5040195;28;19929;-66
2022/04/13 04:38:07;;;;;;;;;;;4.90;88.20;;;;;;5036641;28;19983;-66
2022/04/13 04:40:33;;;;;;;;;;;4.90;88.10;;;;;;5020297;28;20006;-67
2022/04/13 04:43:00;;;;;;;;;;;4.90;87.50;;;;;;5021776;28;19928;-67
2022/04/13 04:45:28;;;;;;;;;;;4.90;87.60;;;;;;5038074;28;19932;-67
2022/04/13 04:47:57;;;;;;;;;;;4.90;87.90;;;;;;5035768;28;19929;-67
2022/04/13 04:50:24;;;;;;;;;;;5.00;87.90;;;;;;5038119;28;19929;-67
2022/04/13 04:52:51;;;;;;;;;;;5.00;88.00;;;;;;5038959;28;19931;-67
2022/04/13 04:55:18;;;;;;;;;;;5.00;88.30;;;;;;5035297;28;19990;-67
2022/04/13 04:57:46;;;;;;;;;;;5.00;87.80;;;;;;5038102;28;20287;-67
2022/04/13 05:00:16;;;;;;;;;;;5.10;88.30;;;;;;5035427;28;20384;-67
2022/04/13 05:02:44;;;;;;;;;;;5.10;88.10;;;;;;4989887;28;19940;-67
2022/04/13 05:05:13;;;;;;;;;;;5.10;88.30;;;;;;4991632;28;19940;-67
2022/04/13 05:07:40;;;;;;;;;;;5.20;87.40;;;;;;4994114;28;20969;-67
2022/04/13 05:10:07;;;;;;;;;;;5.20;86.70;;;;;;4992154;28;20068;-67
2022/04/13 05:12:42;;;;;;;;;;;5.30;85.80;;;;;;4990359;28;19975;-67
2022/04/13 05:15:10;;;;;;;;;;;5.30;85.10;;;;;;4994713;28;20542;-67
2022/04/13 05:17:37;;;;;;;;;;;5.40;84.80;;;;;;4988410;28;19933;-67
2022/04/13 05:20:04;;;;;;;;;;;5.40;84.70;;;;;;4987723;28;20517;-67
2022/04/13 05:22:31;;;;;;;;;;;5.40;83.80;;;;;;4987983;28;22689;-67
2022/04/13 05:25:09;;;;;;;;;;;5.50;83.70;;;;;;4988950;28;22374;-67
2022/04/13 05:27:36;;;;;;;;;;;5.50;83.50;;;;;;4986590;28;19933;-67
2022/04/13 05:30:04;;;;;;;;;;;5.50;83.10;;;;;;4973110;28;20071;-67
2022/04/13 05:32:31;;;;;;;;;;;5.60;83.20;;;;;;4988382;28;19940;-67
2022/04/13 05:35:02;;;;;;;;;;;5.70;83.10;;;;;;4991500;28;20063;-67
2022/04/13 05:37:29;;;;;;;;;;;5.70;82.50;;;;;;4991202;28;22310;-67
2022/04/13 05:39:56;;;;;;;;;;;5.80;82.40;;;;;;4990040;28;19933;-67
2022/04/13 05:42:27;;;;;;;;;;;6.00;82.50;;;;;;5005970;28;20677;-67
2022/04/13 05:44:54;;;;;;;;;;;6.10;81.70;;;;;;4991702;28;20079;-68
2022/04/13 05:47:21;;;;;;;;;;;6.10;82.00;;;;;;4988206;28;19964;-67
2022/04/13 05:49:47;;;;;;;;;;;6.20;82.30;;;;;;5005064;28;19940;-67
2022/04/13 05:52:15;;;;;;;;;;;6.40;82.30;;;;;;5004119;28;19933;-67
2022/04/13 05:54:42;;;;;;;;;;;6.40;80.40;;;;;;4988608;28;19933;-67
2022/04/13 05:57:09;;;;;;;;;;;6.60;80.00;;;;;;4990564;28;19933;-67
2022/04/13 05:59:36;;;;;;;;;;;6.70;79.40;;;;;;4991832;28;19932;-67
2022/04/13 06:02:03;;;;;;;;;;;6.90;79.50;;;;;;4986439;28;20603;-67
2022/04/13 06:04:34;;;;;;;;;;;7.00;79.00;;;;;;4988375;28;19936;-67
2022/04/13 06:07:01;;;;;;;;;;;7.10;78.50;;;;;;4993801;28;22302;-66
2022/04/13 06:09:28;;;;;;;;;;;7.30;77.80;;;;;;5004132;28;20734;-66
2022/04/13 06:11:55;;;;;;;;;;;7.50;76.00;;;;;;4984761;28;22452;-66
2022/04/13 06:14:22;;;;;;;;;;;7.60;75.90;;;;;;4993835;28;19972;-67
2022/04/13 06:16:49;;;;;;;;;;;7.80;75.40;;;;;;4985619;28;19960;-67
2022/04/13 06:19:16;;;;;;;;;;;8.00;74.40;;;;;;4986535;28;19933;-67
2022/04/13 06:21:43;;;;;;;;;;;8.20;73.80;;;;;;4984827;28;20638;-66
2022/04/13 06:24:10;;;;;;;;;;;8.30;74.30;;;;;;4983900;28;22082;-66
2022/04/13 06:26:37;;;;;;;;;;;8.50;75.50;;;;;;4984297;28;19995;-67
2022/04/13 06:29:04;;;;;;;;;;;8.60;74.50;;;;;;4992711;28;19953;-67
2022/04/13 06:31:31;;;;;;;;;;;8.70;71.20;;;;;;4987569;28;19944;-67
2022/04/13 06:33:59;;;;;;;;;;;8.80;71.00;;;;;;4986488;28;19999;-66
2022/04/13 06:36:26;;;;;;;;;;;8.90;69.00;;;;;;4985731;28;20031;-67
2022/04/13 06:38:54;;;;;;;;;;;8.90;69.30;;;;;;4994467;28;19962;-67
2022/04/13 06:41:21;;;;;;;;;;;9.10;70.30;;;;;;4994615;28;22385;-67
2022/04/13 06:43:48;;;;;;;;;;;9.30;68.80;;;;;;4995425;28;22465;-67
2022/04/13 06:46:15;;;;;;;;;;;9.30;70.10;;;;;;4991091;28;19933;-66
2022/04/13 06:48:42;;;;;;;;;;;9.50;70.00;;;;;;4988349;28;19940;-67
2022/04/13 06:51:09;;;;;;;;;;;9.60;69.30;;;;;;4986952;28;23567;-67
2022/04/13 06:53:36;;;;;;;;;;;9.80;67.30;;;;;;4988062;28;20119;-67
2022/04/13 06:56:03;;;;;;;;;;;10.00;66.40;;;;;;4990122;28;20850;-67
2022/04/13 06:58:30;;;;;;;;;;;10.10;67.90;;;;;;5000204;28;20311;-67
2022/04/13 07:00:57;;;;;;;;;;;10.20;66.80;;;;;;4983442;28;20616;-67
2022/04/13 07:03:25;;;;;;;;;;;10.30;66.40;;;;;;4982065;28;19933;-67
2022/04/13 07:05:53;;;;;;;;;;;10.30;64.30;;;;;;4986467;28;20572;-67
2022/04/13 07:08:20;;;;;;;;;;;10.40;64.40;;;;;;4985068;28;19937;-66
2022/04/13 07:10:47;;;;;;;;;;;10.50;66.80;;;;;;4980342;28;19933;-66
2022/04/13 07:13:16;;;;;;;;;;;10.60;64.70;;;;;;4982087;28;19933;-66
2022/04/13 07:15:43;;;;;;;;;;;10.60;66.10;;;;;;4981793;28;20048;-65
2022/04/13 07:18:10;;;;;;;;;;;10.80;63.40;;;;;;4980662;28;19933;-66
2022/04/13 07:20:37;;;;;;;;;;;11.00;64.80;;;;;;4982051;28;22588;-68
2022/04/13 07:23:04;;;;;;;;;;;11.10;63.30;;;;;;4989638;28;20343;-66
2022/04/13 07:25:32;;;;;;;;;;;11.30;63.70;;;;;;4985133;28;19933;-67
2022/04/13 07:27:59;;;;;;;;;;;11.40;62.50;;;;;;4985036;28;19933;-66
2022/04/13 07:30:26;;;;;;;;;;;11.60;61.30;;;;;;4985617;28;19933;-67
2022/04/13 07:32:55;;;;;;;;;;;11.60;60.30;;;;;;4987964;28;19985;-66
2022/04/13 07:35:23;;;;;;;;;;;11.70;61.10;;;;;;4984540;28;19933;-67
2022/04/13 07:37:50;;;;;;;;;;;11.60;59.40;;;;;;4994862;28;20114;-67
2022/04/13 07:40:17;;;;;;;;;;;11.60;58.20;;;;;;4983289;28;20700;-67
2022/04/13 07:42:44;;;;;;;;;;;11.80;59.40;;;;;;4986667;28;20738;-68
2022/04/13 07:45:13;;;;;;;;;;;11.90;58.30;;;;;;5000223;28;20149;-67
2022/04/13 07:47:39;;;;;;;;;;;12.10;59.90;;;;;;4983323;28;19937;-67
2022/04/13 07:50:07;;;;;;;;;;;12.20;59.20;;;;;;4986720;28;19937;-68
2022/04/13 07:52:35;;;;;;;;;;;12.30;58.30;;;;;;4971379;28;19940;-67
2022/04/13 07:55:03;;;;;;;;;;;12.40;57.40;;;;;;4982061;28;20396;-67
2022/04/13 07:57:30;;;;;;;;;;;12.60;57.90;;;;;;5002163;28;19939;-67
2022/04/13 07:59:56;;;;;;;;;;;12.60;55.80;;;;;;4986554;28;19933;-69
2022/04/13 08:02:24;;;;;;;;;;;12.70;58.30;;;;;;4989191;28;19979;-67
2022/04/13 08:04:51;;;;;;;;;;;12.90;56.00;;;;;;4982769;28;20082;-67
2022/04/13 08:07:18;;;;;;;;;;;12.90;54.00;;;;;;4984265;28;20071;-68
2022/04/13 08:09:45;;;;;;;;;;;13.10;54.50;;;;;;4987640;28;19933;-68
2022/04/13 08:12:13;;;;;;;;;;;13.20;55.20;;;;;;4986620;28;21057;-68
2022/04/13 08:14:40;;;;;;;;;;;13.20;55.80;;;;;;5002971;28;20441;-68
2022/04/13 08:17:06;;;;;;;;;;;13.30;54.30;;;;;;4987338;28;19961;-67
2022/04/13 08:19:33;;;;;;;;;;;13.30;54.30;;;;;;4987289;28;19933;-67
2022/04/13 08:22:00;;;;;;;;;;;13.40;53.90;;;;;;4986565;28;19932;-67
2022/04/13 08:24:27;;;;;;;;;;;13.60;51.80;;;;;;4988233;28;20699;-67
2022/04/13 08:26:54;;;;;;;;;;;13.60;53.20;;;;;;4992960;28;19933;-68
2022/04/13 08:29:21;;;;;;;;;;;13.60;51.60;;;;;;4989788;28;19933;-68
2022/04/13 08:31:48;;;;;;;;;;;13.70;53.30;;;;;;4988338;28;20027;-68
2022/04/13 08:34:15;;;;;;;;;;;13.80;51.60;;;;;;4989350;28;19932;-68
2022/04/13 08:36:42;;;;;;;;;;;13.90;51.70;;;;;;4987527;28;20017;-67
2022/04/13 08:39:13;;;;;;;;;;;13.80;49.40;;;;;;4979059;28;19933;-68
2022/04/13 08:41:51;;;;;;;;;;;13.90;53.10;;;;;;4987696;28;20538;-68
2022/04/13 08:44:22;;;;;;;;;;;13.90;49.00;;;;;;4989378;28;19933;-68
2022/04/13 08:46:55;;;;;;;;;;;14.20;52.30;;;;;;4996291;28;20065;-68
2022/04/13 08:49:23;;;;;;;;;;;14.20;52.60;;;;;;4990571;28;19933;-68
2022/04/13 08:52:12;;;;;;;;;;;14.30;50.50;;;;;;4988181;28;22154;-67
2022/04/13 08:54:41;;;;;;;;;;;14.30;52.20;;;;;;4986918;28;22027;-68
2022/04/13 08:57:11;;;;;;;;;;;14.40;50.20;;;;;;4987424;28;19933;-68
2022/04/13 09:00:05;;;;;;;;;;;14.40;50.00;;;;;;4983760;28;19986;-67
2022/04/13 09:02:52;;;;;;;;;;;14.70;48.70;;;;;;4985575;28;19940;-68
2022/04/13 09:05:23;;;;;;;;;;;14.70;50.10;;;;;;4985881;28;20021;-67
2022/04/13 09:07:57;;;;;;;;;;;14.90;49.90;;;;;;4990515;28;20323;-67
2022/04/13 09:10:24;;;;;;;;;;;14.70;48.60;;;;;;4988077;28;19940;-67
2022/04/13 09:12:52;;;;;;;;;;;14.90;49.40;;;;;;4988395;28;20112;-69
2022/04/13 09:15:20;;;;;;;;;;;14.80;47.90;;;;;;4988803;28;20558;-68
2022/04/13 09:17:47;;;;;;;;;;;15.00;47.10;;;;;;4986105;28;19933;-68
2022/04/13 09:20:14;;;;;;;;;;;15.10;46.90;;;;;;4986820;28;19936;-67
2022/04/13 09:22:42;;;;;;;;;;;14.90;46.10;;;;;;4981161;28;20487;-67
2022/04/13 09:25:09;;;;;;;;;;;15.10;50.10;;;;;;4984513;28;19940;-67
2022/04/13 09:27:37;;;;;;;;;;;15.20;46.40;;;;;;4980889;28;20615;-69
2022/04/13 09:30:05;;;;;;;;;;;15.20;49.00;;;;;;4979962;28;19999;-68
2022/04/13 09:32:32;;;;;;;;;;;15.30;49.90;;;;;;4985560;28;20367;-68
2022/04/13 09:34:59;;;;;;;;;;;15.40;49.30;;;;;;4978215;28;20700;-67
2022/04/13 09:37:26;;;;;;;;;;;15.50;50.80;;;;;;4983605;28;19933;-69
2022/04/13 09:39:55;;;;;;;;;;;15.50;48.10;;;;;;4984057;28;19933;-67
2022/04/13 09:42:24;;;;;;;;;;;15.60;47.00;;;;;;4981432;28;19933;-67
2022/04/13 09:44:58;;;;;;;;;;;15.70;47.30;;;;;;4989860;28;19937;-67
2022/04/13 09:47:33;;;;;;;;;;;15.80;46.10;;;;;;4990056;28;19937;-67
2022/04/13 09:50:00;;;;;;;;;;;15.60;45.70;;;;;;5003676;28;20001;-69
2022/04/13 09:52:37;;;;;;;;;;;15.80;48.50;;;;;;5003893;28;19932;-68
2022/04/13 09:55:05;;;;;;;;;;;15.90;49.40;;;;;;4988362;28;20466;-67
2022/04/13 09:57:32;;;;;;;;;;;16.00;47.60;;;;;;5005089;28;20406;-67
2022/04/13 09:59:59;;;;;;;;;;;15.90;45.40;;;;;;4989417;28;19937;-68
2022/04/13 10:02:40;;;;;;;;;;;16.00;48.20;;;;;;4974016;28;20683;-67
2022/04/13 10:05:08;;;;;;;;;;;15.90;45.20;;;;;;4989408;28;19939;-67
2022/04/13 10:07:35;;;;;;;;;;;16.00;47.00;;;;;;4995576;28;20359;-67
2022/04/13 10:10:03;;;;;;;;;;;16.00;46.00;;;;;;4978118;28;19940;-68
2022/04/13 10:12:51;;;;;;;;;;;16.10;45.80;;;;;;4989109;28;19933;-67
2022/04/13 10:15:18;;;;;;;;;;;16.50;46.90;;;;;;4990202;28;20002;-69
2022/04/13 10:17:45;;;;;;;;;;;16.40;46.60;;;;;;4995302;28;19940;-67
2022/04/13 10:20:12;;;;;;;;;;;16.40;46.80;;;;;;4988161;28;19932;-67
2022/04/13 10:23:01;;;;;;;;;;;16.40;46.40;;;;;;4989396;28;20121;-67
2022/04/13 10:25:28;;;;;;;;;;;16.50;45.90;;;;;;4989150;28;19933;-68
2022/04/13 10:27:56;;;;;;;;;;;16.60;46.90;;;;;;4987730;28;19940;-67
2022/04/13 10:30:28;;;;;;;;;;;16.70;47.10;;;;;;4988077;28;19986;-68
2022/04/13 10:32:59;;;;;;;;;;;16.60;45.30;;;;;;4989352;28;19937;-68
2022/04/13 10:35:27;;;;;;;;;;;16.90;46.80;;;;;;4984421;28;19972;-67
2022/04/13 10:37:55;;;;;;;;;;;16.70;44.10;;;;;;4989467;28;19932;-67
2022/04/13 10:40:28;;;;;;;;;;;16.90;45.90;;;;;;4987963;28;19978;-67
2022/04/13 10:42:58;;;;;;;;;;;17.00;44.70;;;;;;4983836;28;21939;-67
2022/04/13 10:45:26;;;;;;;;;;;17.00;45.10;;;;;;4985896;28;20341;-68
2022/04/13 10:48:13;;;;;;;;;;;17.00;46.90;;;;;;4988520;28;19933;-67
2022/04/13 10:50:54;;;;;;;;;;;17.00;45.10;;;;;;4985859;28;20043;-70
2022/04/13 10:53:21;;;;;;;;;;;17.00;44.80;;;;;;4987383;28;20151;-69
2022/04/13 10:56:04;;;;;;;;;;;17.00;44.00;;;;;;4993470;28;21862;-68
2022/04/13 10:58:46;;;;;;;;;;;17.20;46.80;;;;;;5002494;28;19932;-67
2022/04/13 11:01:15;;;;;;;;;;;17.30;46.50;;;;;;4994903;28;20418;-67
2022/04/13 11:03:42;;;;;;;;;;;17.10;46.60;;;;;;4987054;28;20407;-68
2022/04/13 11:06:10;;;;;;;;;;;17.20;44.80;;;;;;4987976;28;19954;-67
2022/04/13 11:08:47;;;;;;;;;;;17.20;44.90;;;;;;4986874;28;20430;-67
2022/04/13 11:11:21;;;;;;;;;;;17.30;43.90;;;;;;4988934;28;19940;-68
2022/04/13 11:13:49;;;;;;;;;;;17.40;43.00;;;;;;4987339;28;19933;-68
2022/04/13 11:16:20;;;;;;;;;;;17.30;45.40;;;;;;4988062;28;20924;-68
2022/04/13 11:19:05;;;;;;;;;;;17.30;45.00;;;;;;4986716;28;19982;-68
2022/04/13 11:21:33;;;;;;;;;;;17.30;44.90;;;;;;4985453;28;20120;-69
2022/04/13 11:24:00;;;;;;;;;;;16.80;41.90;;;;;;5003335;28;19941;-68
2022/04/13 11:26:47;;;;;;;;;;;17.10;43.30;;;;;;4988097;28;19940;-67
2022/04/13 11:29:17;;;;;;;;;;;17.40;43.10;;;;;;4987844;28;19933;-68
2022/04/13 11:32:00;;;;;;;;;;;17.50;42.10;;;;;;4990667;28;21740;-68
2022/04/13 11:34:32;;;;;;;;;;;17.50;41.80;;;;;;4983816;28;20499;-70
2022/04/13 11:36:59;;;;;;;;;;;17.40;44.30;;;;;;4985580;28;20007;-68
2022/04/13 11:39:45;;;;;;;;;;;17.50;42.80;;;;;;4992492;28;20585;-67
2022/04/13 11:42:17;;;;;;;;;;;17.60;42.80;;;;;;4993269;28;20557;-67
2022/04/13 11:44:47;;;;;;;;;;;18.00;45.80;;;;;;4983978;28;20309;-68
2022/04/13 11:47:15;;;;;;;;;;;17.60;40.80;;;;;;4988283;28;20034;-67
2022/04/13 11:50:02;;;;;;;;;;;17.60;45.80;;;;;;4986947;28;20070;-69
2022/04/13 11:52:39;;;;;;;;;;;17.80;44.00;;;;;;4984774;28;19936;-67
2022/04/13 11:55:19;;;;;;;;;;;17.90;43.50;;;;;;4986394;28;20806;-67
2022/04/13 11:58:04;;;;;;;;;;;17.90;43.20;;;;;;4985967;28;20108;-68
2022/04/13 12:00:39;;;;;;;;;;;18.10;45.60;;;;;;4987489;28;19933;-67
2022/04/13 12:03:07;;;;;;;;;;;18.10;42.30;;;;;;4984044;28;20522;-67
2022/04/13 12:05:38;;;;;;;;;;;18.30;42.90;;;;;;4991373;28;19932;-68
2022/04/13 12:08:15;;;;;;;;;;;18.30;42.50;;;;;;4991868;28;19933;-67
2022/04/13 12:10:50;;;;;;;;;;;18.40;43.10;;;;;;4990117;28;20067;-67
2022/04/13 12:13:17;;;;;;;;;;;18.40;45.90;;;;;;4975091;28;19940;-68
2022/04/13 12:15:45;;;;;;;;;;;18.40;43.90;;;;;;4992706;28;19933;-68
2022/04/13 12:18:13;;;;;;;;;;;18.40;43.30;;;;;;4991470;28;19939;-68
2022/04/13 12:20:40;;;;;;;;;;;18.20;41.20;;;;;;5008433;28;20091;-67
2022/04/13 12:23:17;;;;;;;;;;;18.10;41.90;;;;;;4990413;28;20060;-67
2022/04/13 12:25:45;;;;;;;;;;;18.30;41.70;;;;;;5006301;28;19943;-67
2022/04/13 12:28:12;;;;;;;;;;;18.10;42.60;;;;;;4990529;28;22115;-67
2022/04/13 12:30:39;;;;;;;;;;;18.40;42.90;;;;;;4991928;28;19940;-68
2022/04/13 12:33:15;;;;;;;;;;;18.60;43.40;;;;;;4991432;28;20510;-67
2022/04/13 12:35:47;;;;;;;;;;;18.50;42.00;;;;;;4992867;28;19967;-67
2022/04/13 12:38:24;;;;;;;;;;;18.70;43.30;;;;;;4991406;28;19986;-68
2022/04/13 12:41:10;;;;;;;;;;;18.60;42.60;;;;;;4992499;28;20003;-68
2022/04/13 12:43:39;;;;;;;;;;;18.40;40.50;;;;;;4991224;28;19940;-67
2022/04/13 12:46:14;;;;;;;;;;;18.60;42.40;;;;;;4992164;28;20032;-68
2022/04/13 12:48:42;;;;;;;;;;;18.60;41.90;;;;;;5003496;28;19937;-67
2022/04/13 12:51:10;;;;;;;;;;;18.80;41.10;;;;;;4992835;28;19933;-67
2022/04/13 12:53:47;;;;;;;;;;;18.70;40.90;;;;;;4974330;28;19933;-67
2022/04/13 12:56:15;;;;;;;;;;;18.00;39.70;;;;;;4990331;28;19986;-67
2022/04/13 12:58:42;;;;;;;;;;;18.30;40.80;;;;;;4991149;28;19995;-67
2022/04/13 13:01:11;;;;;;;;;;;18.40;40.80;;;;;;4990059;28;19933;-67
2022/04/13 13:03:40;;;;;;;;;;;18.60;41.60;;;;;;4989094;28;20062;-67
2022/04/13 13:06:08;;;;;;;;;;;18.70;40.10;;;;;;4991193;28;19932;-68
2022/04/13 13:08:36;;;;;;;;;;;18.70;40.90;;;;;;5004685;28;19932;-68
2022/04/13 13:11:07;;;;;;;;;;;19.00;42.20;;;;;;4995800;28;20455;-68
2022/04/13 13:13:38;;;;;;;;;;;19.10;41.60;;;;;;4985557;28;20302;-68
2022/04/13 13:16:05;;;;;;;;;;;19.20;40.90;;;;;;4991784;28;19932;-67
2022/04/13 13:18:32;;;;;;;;;;;19.10;41.20;;;;;;4985812;28;19933;-69
2022/04/13 13:20:59;;;;;;;;;;;19.30;43.80;;;;;;4989208;28;20724;-68
2022/04/13 13:23:30;;;;;;;;;;;19.30;42.00;;;;;;4986643;28;19941;-70
2022/04/13 13:25:58;;;;;;;;;;;19.30;43.50;;;;;;4980733;28;19940;-68
2022/04/13 13:28:26;;;;;;;;;;;19.20;41.50;;;;;;4983545;28;20075;-68
2022/04/13 13:30:54;;;;;;;;;;;19.00;39.40;;;;;;4983777;28;20422;-68
2022/04/13 13:33:22;;;;;;;;;;;19.00;41.40;;;;;;4988068;28;22295;-68
2022/04/13 13:35:49;;;;;;;;;;;19.10;43.00;;;;;;4985952;28;20623;-68
2022/04/13 13:38:19;;;;;;;;;;;19.20;43.70;;;;;;4983676;28;19933;-68
2022/04/13 13:40:47;;;;;;;;;;;19.40;41.80;;;;;;4982571;28;19933;-68
2022/04/13 13:43:25;;;;;;;;;;;19.30;43.00;;;;;;4988990;28;20587;-68
2022/04/13 13:45:53;;;;;;;;;;;19.30;42.40;;;;;;4988479;28;19940;-68
2022/04/13 13:48:25;;;;;;;;;;;19.20;42.90;;;;;;4985036;28;19933;-68
2022/04/13 13:50:53;;;;;;;;;;;19.10;41.20;;;;;;4986066;28;20304;-68
2022/04/13 13:53:21;;;;;;;;;;;19.10;39.00;;;;;;4982693;28;22071;-68
2022/04/13 13:55:48;;;;;;;;;;;19.20;41.60;;;;;;4991166;28;20596;-69
2022/04/13 13:58:17;;;;;;;;;;;19.30;41.60;;;;;;4986284;28;19933;-70
2022/04/13 14:00:44;;;;;;;;;;;19.20;41.40;;;;;;4991164;28;20380;-69
2022/04/13 14:03:12;;;;;;;;;;;19.20;40.70;;;;;;4987906;28;20529;-69
2022/04/13 14:05:40;;;;;;;;;;;19.20;40.50;;;;;;4992670;28;19984;-69
2022/04/13 14:08:08;;;;;;;;;;;19.10;40.10;;;;;;4986257;28;21193;-68
2022/04/13 14:10:38;;;;;;;;;;;19.10;42.30;;;;;;4987047;28;20584;-70
2022/04/13 14:13:06;;;;;;;;;;;19.00;41.10;;;;;;4985518;28;19933;-69
2022/04/13 14:15:34;;;;;;;;;;;19.10;43.00;;;;;;4986311;28;20592;-69
2022/04/13 14:18:01;;;;;;;;;;;19.10;41.20;;;;;;4980374;28;19984;-70
2022/04/13 14:20:28;;;;;;;;;;;19.10;42.80;;;;;;4989700;28;19940;-69
2022/04/13 14:22:56;;;;;;;;;;;19.10;43.10;;;;;;4987577;28;20719;-69
2022/04/13 14:25:25;;;;;;;;;;;19.10;42.80;;;;;;4971475;28;20213;-69
2022/04/13 14:27:53;;;;;;;;;;;19.10;42.30;;;;;;4989794;28;19976;-69
2022/04/13 14:30:21;;;;;;;;;;;19.10;43.00;;;;;;4985293;28;19989;-68
2022/04/13 14:32:48;;;;;;;;;;;18.90;42.30;;;;;;4985259;28;20024;-68